METAR Data
IDs: Format: Raw Decoded Include TAF

Data at: 1453 UTC 21 May 2019

KCSQ 211435Z AUTO 10021G27KT 10SM OVC013 08/06 A2983 RMK AO2
KCSQ 211415Z AUTO 09017G28KT 10SM OVC012 08/06 A2983 RMK AO2
KCSQ 211355Z AUTO 10019G28KT 10SM OVC011 08/06 A2985 RMK AO2
KCSQ 211335Z AUTO 09021G30KT 10SM OVC010 08/06 A2983 RMK AO2
KCSQ 211315Z AUTO 10020G29KT 10SM OVC009 08/07 A2983 RMK AO2
KCSQ 211255Z AUTO 11027G33KT 10SM OVC008 08/07 A2984 RMK AO2
KCSQ 211235Z AUTO 10021G30KT 10SM BKN007 OVC011 08/07 A2984 RMK AO2
KCSQ 211215Z AUTO 09023G29KT 10SM OVC009 08/07 A2982 RMK AO2
KCSQ 211155Z AUTO 09024G33KT 10SM OVC009 08/07 A2981 RMK AO2
KCSQ 211135Z AUTO 10024G36KT 10SM BKN007 OVC010 08/07 A2984 RMK AO2
KCSQ 211115Z AUTO 10021G28KT 10SM OVC006 08/07 A2985 RMK AO2
KCSQ 211055Z AUTO 10022G28KT 10SM OVC007 08/08 A2985 RMK AO2
KCSQ 211035Z AUTO 10018G26KT 10SM OVC007 08/07 A2986 RMK AO2
KCSQ 211015Z AUTO 09020G27KT 10SM BKN007 OVC010 08/08 A2985 RMK AO2
KCSQ 210955Z AUTO 10019G25KT 10SM OVC007 08/08 A2986 RMK AO2
KCSQ 210935Z AUTO 09016KT 10SM OVC006 08/08 A2987 RMK AO2
KCSQ 210915Z AUTO 10020G25KT 2 1/2SM BR OVC007 08/08 A2988 RMK AO2
KCSQ 210855Z AUTO 09016KT 2SM -RA OVC006 08/08 A2989 RMK AO2
KCSQ 210835Z AUTO 10013G18KT 1 3/4SM -RA OVC006 08/08 A2991 RMK AO2
KCSQ 210815Z AUTO 09013G20KT 2SM BR BKN006 OVC010 08/08 A2991 RMK AO2
KCSQ 210755Z AUTO 08015G21KT 3SM BR OVC009 08/08 A2988 RMK AO2
KCSQ 210735Z AUTO 08019KT 2 1/2SM BR BKN008 OVC012 08/08 A2989 RMK AO2
KCSQ 210715Z AUTO 09015G20KT 5SM BR OVC009 08/07 A2991 RMK AO2
KCSQ 210655Z AUTO 09015G23KT 10SM OVC010 08/07 A2991 RMK AO2
KCSQ 210635Z AUTO 08014G24KT 10SM OVC010 08/07 A2991 RMK AO2
KCSQ 210615Z AUTO 08017G24KT 10SM OVC009 08/07 A2991 RMK AO2
KCSQ 210555Z AUTO 08018G23KT 10SM OVC010 08/07 A2993 RMK AO2
KCSQ 210535Z AUTO 09018G24KT 10SM OVC011 08/07 A2995 RMK AO2
KCSQ 210515Z AUTO 09016G24KT 10SM OVC014 08/07 A2994 RMK AO2
KCSQ 210455Z AUTO 09020G25KT 10SM BKN014 OVC050 08/07 A2992 RMK AO2
KCSQ 210435Z AUTO 09018KT 10SM SCT013 OVC060 08/07 A2994 RMK AO2
KCSQ 210415Z AUTO 08019G26KT 10SM FEW012 OVC060 08/07 A2993 RMK AO2
KCSQ 210355Z AUTO 09016G24KT 10SM FEW012 OVC065 08/07 A2994 RMK AO2
KCSQ 210335Z AUTO 09017G25KT 10SM SCT011 OVC070 08/07 A2995 RMK AO2
KCSQ 210315Z AUTO 09019KT 08/07 A2996 RMK AO2
KCSQ 210255Z AUTO 09016KT 10SM SCT011 OVC075 08/07 A2997 RMK AO2
KCSQ 210235Z AUTO 09017G22KT 10SM SCT011 OVC075 08/07 A2996 RMK AO2
KCSQ 210215Z AUTO 08018KT 10SM SCT010 SCT039 BKN075 08/07 A2996 RMK AO2
KCSQ 210155Z AUTO 08016G21KT 10SM FEW009 BKN075 OVC100 08/07 A2997 RMK AO2
KCSQ 210135Z AUTO 09015G21KT 10SM FEW008 BKN080 OVC100 08/07 A2999 RMK AO2
KCSQ 210115Z AUTO 10015KT 10SM FEW008 OVC085 08/08 A3001 RMK AO2
KCSQ 210055Z AUTO 10014KT 10SM FEW008 BKN090 08/08 A3002 RMK AO2
KCSQ 210035Z AUTO 10014KT 9SM SCT007 BKN028 BKN033 08/08 A3003 RMK AO2
KCSQ 210015Z AUTO 10013KT 3SM BR FEW028 BKN033 OVC050 08/08 A3004 RMK AO2
KCSQ 202355Z AUTO 11010KT 2 1/2SM -RA FEW028 SCT033 BKN039 08/08 A3006 RMK AO2
KCSQ 202335Z AUTO 10008KT 4SM -RA FEW041 FEW048 BKN080 09/07 A3008 RMK AO2
KCSQ 202315Z AUTO 08010KT 4SM BR FEW080 09/07 A3007 RMK AO2
KCSQ 202255Z AUTO 07010KT 7SM CLR 09/07 A3007 RMK AO2
KCSQ 202235Z AUTO 07009KT 6SM -RA FEW065 FEW075 FEW090 09/07 A3008 RMK AO2
KCSQ 202215Z AUTO 07011KT 10SM CLR 10/06 A3008 RMK AO2
KCSQ 202155Z AUTO 08009KT 10SM CLR 10/06 A3009 RMK AO2
KCSQ 202135Z AUTO 08010KT 10SM FEW023 10/05 A3008 RMK AO2
KCSQ 202115Z AUTO 08011KT 10SM FEW024 10/05 A3011 RMK AO2
KCSQ 202055Z AUTO 08008G13KT 10SM FEW024 10/05 A3012 RMK AO2
KCSQ 202035Z AUTO 08010KT 10SM FEW024 11/05 A3010 RMK AO2
KCSQ 202015Z AUTO 08010G16KT 10SM FEW024 11/05 A3010 RMK AO2
KCSQ 201955Z AUTO 09010KT 10SM SCT023 11/05 A3011 RMK AO2
KCSQ 201935Z AUTO 09010G17KT 10SM FEW024 FEW095 10/05 A3011 RMK AO2
KCSQ 201915Z AUTO 06013G18KT 10SM FEW024 SCT095 10/05 A3012 RMK AO2
KCSQ 201855Z AUTO 06010KT 10SM SCT024 10/05 A3014 RMK AO2
KCSQ 201835Z AUTO 10009G14KT 10SM BKN024 11/05 A3014 RMK AO2
KCSQ 201815Z AUTO 10009KT 10SM BKN024 10/04 A3015 RMK AO2
KCSQ 201755Z AUTO 07011KT 10SM BKN022 10/05 A3014 RMK AO2
KCSQ 201735Z AUTO 06011G16KT 10SM BKN022 10/05 A3012 RMK AO2
KCSQ 201715Z AUTO 06014KT 10SM BKN022 10/05 A3012 RMK AO2
KCSQ 201655Z AUTO 04014KT 10SM BKN022 09/04 A3013 RMK AO2
KCSQ 201635Z AUTO 06009G14KT 10SM OVC021 09/04 A3016 RMK AO2
KCSQ 201615Z AUTO 05012KT 10SM BKN021 09/04 A3016 RMK AO2
KCSQ 201555Z AUTO 06013KT 10SM OVC020 09/04 A3015 RMK AO2
KCSQ 201535Z AUTO 03010G16KT 10SM BKN022 09/04 A3014 RMK AO2
KCSQ 201515Z AUTO 04009KT 360V070 10SM SCT020 SCT025 08/04 A3015 RMK AO2
KCSQ 201455Z AUTO 04008KT 10SM BKN019 08/04 A3016 RMK AO2
KCSQ 201435Z AUTO 06005G12KT 10SM OVC019 07/03 A3017 RMK AO2
KCSQ 201415Z AUTO 02006G12KT 10SM OVC018 07/03 A3016 RMK AO2
KCSQ 201355Z AUTO 04010KT 10SM BKN015 06/03 A3013 RMK AO2
KCSQ 201335Z AUTO 05011KT 10SM BKN015 06/03 A3014 RMK AO2
KCSQ 201315Z AUTO 04012KT 10SM OVC014 05/03 A3012 RMK AO2
KCSQ 201255Z AUTO 03014KT 10SM OVC014 05/03 A3011 RMK AO2
KCSQ 201235Z AUTO 01013KT 10SM OVC013 05/02 A3011 RMK AO2
KCSQ 201215Z AUTO 01011G18KT 10SM OVC012 04/02 A3010 RMK AO2
KCSQ 201155Z AUTO 01013G18KT 10SM OVC012 04/02 A3010 RMK AO2
KCSQ 201135Z AUTO 02010G17KT 10SM BKN012 04/02 A3010 RMK AO2
KCSQ 201115Z AUTO 01010G15KT 10SM FEW016 04/02 A3009 RMK AO2
KCSQ 201055Z AUTO 36011KT 10SM BKN015 04/02 A3009 RMK AO2
KCSQ 201035Z AUTO 35010G16KT 10SM OVC013 05/03 A3009 RMK AO2
KCSQ 201015Z AUTO 36011G18KT 10SM OVC013 05/03 A3008 RMK AO2
KCSQ 200955Z AUTO 36011KT 10SM OVC016 05/03 A3008 RMK AO2
KCSQ 200935Z AUTO 36010KT 10SM BKN017 05/03 A3008 RMK AO2
KCSQ 200915Z AUTO 36009KT 10SM SCT013 BKN019 05/03 A3008 RMK AO2
KCSQ 200855Z AUTO 36012KT 10SM BKN013 BKN021 05/04 A3008 RMK AO2
KCSQ 200835Z AUTO 36009G15KT 10SM FEW013 BKN024 06/04 A3006 RMK AO2
KCSQ 200815Z AUTO 36011G18KT 10SM FEW010 SCT018 OVC024 06/05 A3007 RMK AO2
KCSQ 200755Z AUTO 36014KT 10SM BKN011 OVC018 06/05 A3006 RMK AO2
KCSQ 200735Z AUTO 36013KT 10SM SCT011 BKN019 OVC028 07/06 A3004 RMK AO2
KCSQ 200715Z AUTO 34013KT 10SM FEW018 OVC028 08/06 A3004 RMK AO2
KCSQ 200655Z AUTO 34013KT 10SM SCT019 OVC028 08/06 A3004 RMK AO2
KCSQ 200635Z AUTO 35013G19KT 10SM SCT013 BKN019 OVC043 08/06 A3004 RMK AO2
KCSQ 200615Z AUTO 31010KT 10SM FEW013 SCT022 OVC041 09/07 A3003 RMK AO2
KCSQ 200555Z AUTO 32008KT 10SM OVC038 08/07 A3003 RMK AO2
KCSQ 200535Z AUTO 32009KT 10SM FEW016 FEW022 OVC037 08/07 A3003 RMK AO2
KCSQ 200515Z AUTO 34011G19KT 3SM BR FEW008 BKN017 OVC035 08/07 A3002 RMK AO2
KCSQ 200455Z AUTO 32011KT 10SM SCT023 OVC035 10/07 A3001 RMK AO2
KCSQ 200435Z AUTO 32013KT 10SM SCT025 OVC034 10/07 A3001 RMK AO2
KCSQ 200415Z AUTO 30009KT 10SM FEW029 BKN035 OVC040 10/07 A3000 RMK AO2
KCSQ 200355Z AUTO 29010KT 10SM OVC040 10/06 A3000 RMK AO2
KCSQ 200335Z AUTO 30011KT 10SM OVC037 10/06 A2999 RMK AO2
KCSQ 200315Z AUTO 29009KT 10SM OVC036 11/06 A2998 RMK AO2
KCSQ 200255Z AUTO 30010KT 10SM OVC035 11/06 A2996 RMK AO2